sensor_id;sensor_type;location;lat;lon;timestamp;pressure;altitude;pressure_sealevel;temperature;humidity
47706;BME280;33471;52.104;1.318;2023-04-15T00:00:41;100541.50;;;10.17;52.97
47706;BME280;33471;52.104;1.318;2023-04-15T00:03:08;100541.43;;;10.58;53.81
47706;BME280;33471;52.104;1.318;2023-04-15T00:05:35;100541.41;;;11.17;52.93
47706;BME280;33471;52.104;1.318;2023-04-15T00:08:03;100544.51;;;10.09;54.52
47706;BME280;33471;52.104;1.318;2023-04-15T00:10:30;100542.71;;;10.58;53.49
47706;BME280;33471;52.104;1.318;2023-04-15T00:12:57;100542.70;;;10.87;52.62
47706;BME280;33471;52.104;1.318;2023-04-15T00:15:24;100544.52;;;10.98;52.53
47706;BME280;33471;52.104;1.318;2023-04-15T00:17:51;100543.82;;;11.04;52.99
47706;BME280;33471;52.104;1.318;2023-04-15T00:20:18;100545.65;;;10.99;53.29
47706;BME280;33471;52.104;1.318;2023-04-15T00:22:45;100543.56;;;10.78;52.48
47706;BME280;33471;52.104;1.318;2023-04-15T00:25:12;100544.36;;;11.11;52.54
47706;BME280;33471;52.104;1.318;2023-04-15T00:27:39;100547.21;;;10.21;53.62
47706;BME280;33471;52.104;1.318;2023-04-15T00:30:07;100545.94;;;10.92;52.31
47706;BME280;33471;52.104;1.318;2023-04-15T00:32:35;100546.57;;;10.92;52.97
47706;BME280;33471;52.104;1.318;2023-04-15T00:35:02;100553.86;;;9.73;55.52
47706;BME280;33471;52.104;1.318;2023-04-15T00:37:30;100556.23;;;9.31;56.88
47706;BME280;33471;52.104;1.318;2023-04-15T00:39:57;100560.04;;;9.76;55.76
47706;BME280;33471;52.104;1.318;2023-04-15T00:42:25;100562.40;;;9.77;56.23
47706;BME280;33471;52.104;1.318;2023-04-15T00:44:53;100560.06;;;10.43;54.78
47706;BME280;33471;52.104;1.318;2023-04-15T00:47:21;100560.75;;;10.30;55.83
47706;BME280;33471;52.104;1.318;2023-04-15T00:49:48;100553.99;;;10.64;54.26
47706;BME280;33471;52.104;1.318;2023-04-15T00:52:15;100554.77;;;11.21;53.99
47706;BME280;33471;52.104;1.318;2023-04-15T00:54:42;100554.54;;;10.26;53.61
47706;BME280;33471;52.104;1.318;2023-04-15T00:57:09;100562.66;;;10.17;54.83
47706;BME280;33471;52.104;1.318;2023-04-15T00:59:37;100563.94;;;10.21;55.26
47706;BME280;33471;52.104;1.318;2023-04-15T01:02:04;100566.21;;;9.90;54.83
47706;BME280;33471;52.104;1.318;2023-04-15T01:04:32;100565.43;;;10.44;55.46
47706;BME280;33471;52.104;1.318;2023-04-15T01:06:59;100569.03;;;10.10;55.31
47706;BME280;33471;52.104;1.318;2023-04-15T01:09:26;100561.30;;;10.71;53.66
47706;BME280;33471;52.104;1.318;2023-04-15T01:11:54;100565.32;;;10.69;53.36
47706;BME280;33471;52.104;1.318;2023-04-15T01:14:21;100567.35;;;11.07;53.37
47706;BME280;33471;52.104;1.318;2023-04-15T01:16:48;100569.07;;;10.51;53.79
47706;BME280;33471;52.104;1.318;2023-04-15T01:19:16;100575.37;;;9.89;55.41
47706;BME280;33471;52.104;1.318;2023-04-15T01:21:44;100575.98;;;9.70;54.79
47706;BME280;33471;52.104;1.318;2023-04-15T01:24:12;100567.18;;;10.52;53.43
47706;BME280;33471;52.104;1.318;2023-04-15T01:26:44;100575.81;;;9.89;54.63
47706;BME280;33471;52.104;1.318;2023-04-15T01:29:12;100569.23;;;11.00;53.17
47706;BME280;33471;52.104;1.318;2023-04-15T01:31:39;100570.86;;;10.23;53.41
47706;BME280;33471;52.104;1.318;2023-04-15T01:34:07;100579.95;;;10.11;54.13
47706;BME280;33471;52.104;1.318;2023-04-15T01:36:35;100576.03;;;10.88;53.17
47706;BME280;33471;52.104;1.318;2023-04-15T01:39:03;100583.73;;;9.95;55.62
47706;BME280;33471;52.104;1.318;2023-04-15T01:41:30;100580.25;;;10.99;53.59
47706;BME280;33471;52.104;1.318;2023-04-15T01:43:58;100583.98;;;10.18;55.16
47706;BME280;33471;52.104;1.318;2023-04-15T01:46:25;100584.74;;;10.38;54.84
47706;BME280;33471;52.104;1.318;2023-04-15T01:48:53;100579.91;;;10.70;53.51
47706;BME280;33471;52.104;1.318;2023-04-15T01:51:21;100582.27;;;11.53;51.95
47706;BME280;33471;52.104;1.318;2023-04-15T01:53:48;100585.02;;;11.33;51.96
47706;BME280;33471;52.104;1.318;2023-04-15T01:56:15;100587.12;;;11.21;52.15
47706;BME280;33471;52.104;1.318;2023-04-15T01:58:42;100590.98;;;10.45;51.78
47706;BME280;33471;52.104;1.318;2023-04-15T02:01:10;100595.43;;;11.20;52.43
47706;BME280;33471;52.104;1.318;2023-04-15T02:03:37;100596.02;;;11.41;51.88
47706;BME280;33471;52.104;1.318;2023-04-15T02:06:04;100597.73;;;11.40;51.73
47706;BME280;33471;52.104;1.318;2023-04-15T02:08:31;100598.67;;;11.39;51.79
47706;BME280;33471;52.104;1.318;2023-04-15T02:10:59;100598.79;;;10.81;52.27
47706;BME280;33471;52.104;1.318;2023-04-15T02:13:26;100602.68;;;11.65;51.39
47706;BME280;33471;52.104;1.318;2023-04-15T02:15:56;100599.47;;;11.76;51.12
47706;BME280;33471;52.104;1.318;2023-04-15T02:18:23;100600.97;;;12.08;51.40
47706;BME280;33471;52.104;1.318;2023-04-15T02:20:51;100600.98;;;11.83;51.28
47706;BME280;33471;52.104;1.318;2023-04-15T02:23:18;100602.41;;;12.09;50.76
47706;BME280;33471;52.104;1.318;2023-04-15T02:25:45;100609.57;;;11.84;51.06
47706;BME280;33471;52.104;1.318;2023-04-15T02:28:12;100611.84;;;10.78;53.17
47706;BME280;33471;52.104;1.318;2023-04-15T02:30:40;100612.47;;;11.34;52.15
47706;BME280;33471;52.104;1.318;2023-04-15T02:33:07;100615.07;;;10.95;53.16
47706;BME280;33471;52.104;1.318;2023-04-15T02:35:35;100621.17;;;10.34;54.57
47706;BME280;33471;52.104;1.318;2023-04-15T02:38:02;100627.47;;;10.32;54.49
47706;BME280;33471;52.104;1.318;2023-04-15T02:40:29;100631.72;;;9.86;55.70
47706;BME280;33471;52.104;1.318;2023-04-15T02:42:56;100635.19;;;9.05;57.34
47706;BME280;33471;52.104;1.318;2023-04-15T02:45:23;100634.49;;;10.45;54.43
47706;BME280;33471;52.104;1.318;2023-04-15T02:47:50;100635.52;;;9.98;54.24
47706;BME280;33471;52.104;1.318;2023-04-15T02:50:18;100634.19;;;10.59;53.96
47706;BME280;33471;52.104;1.318;2023-04-15T02:52:45;100640.21;;;9.81;54.75
47706;BME280;33471;52.104;1.318;2023-04-15T02:55:12;100636.38;;;10.73;53.59
47706;BME280;33471;52.104;1.318;2023-04-15T02:57:40;100640.71;;;10.09;53.95
47706;BME280;33471;52.104;1.318;2023-04-15T03:00:09;100643.46;;;10.48;52.74
47706;BME280;33471;52.104;1.318;2023-04-15T03:02:38;100645.06;;;10.40;53.01
47706;BME280;33471;52.104;1.318;2023-04-15T03:05:10;100649.19;;;10.91;52.85
47706;BME280;33471;52.104;1.318;2023-04-15T03:07:38;100652.88;;;10.88;52.31
47706;BME280;33471;52.104;1.318;2023-04-15T03:10:07;100657.98;;;10.85;51.89
47706;BME280;33471;52.104;1.318;2023-04-15T03:12:34;100662.20;;;10.94;51.96
47706;BME280;33471;52.104;1.318;2023-04-15T03:15:01;100660.94;;;11.15;51.84
47706;BME280;33471;52.104;1.318;2023-04-15T03:17:28;100660.66;;;11.20;51.25
47706;BME280;33471;52.104;1.318;2023-04-15T03:19:56;100663.62;;;11.28;50.97
47706;BME280;33471;52.104;1.318;2023-04-15T03:22:23;100668.55;;;11.29;51.07
47706;BME280;33471;52.104;1.318;2023-04-15T03:24:50;100670.75;;;11.03;51.72
47706;BME280;33471;52.104;1.318;2023-04-15T03:27:17;100671.99;;;11.16;51.17
47706;BME280;33471;52.104;1.318;2023-04-15T03:29:45;100676.74;;;11.10;50.28
47706;BME280;33471;52.104;1.318;2023-04-15T03:32:13;100679.34;;;12.16;49.65
47706;BME280;33471;52.104;1.318;2023-04-15T03:34:40;100685.52;;;10.81;51.88
47706;BME280;33471;52.104;1.318;2023-04-15T03:37:08;100687.25;;;11.14;52.95
47706;BME280;33471;52.104;1.318;2023-04-15T03:39:35;100690.88;;;9.71;54.69
47706;BME280;33471;52.104;1.318;2023-04-15T03:42:03;100693.79;;;9.82;55.87
47706;BME280;33471;52.104;1.318;2023-04-15T03:44:30;100699.95;;;10.48;54.61
47706;BME280;33471;52.104;1.318;2023-04-15T03:46:57;100704.84;;;10.49;54.06
47706;BME280;33471;52.104;1.318;2023-04-15T03:49:24;100707.78;;;10.15;54.90
47706;BME280;33471;52.104;1.318;2023-04-15T03:51:51;100710.95;;;10.31;54.05
47706;BME280;33471;52.104;1.318;2023-04-15T03:54:18;100715.62;;;10.31;55.20
47706;BME280;33471;52.104;1.318;2023-04-15T03:56:45;100719.74;;;9.31;56.19
47706;BME280;33471;52.104;1.318;2023-04-15T03:59:12;100721.13;;;9.46;56.29
47706;BME280;33471;52.104;1.318;2023-04-15T04:01:40;100725.28;;;9.98;54.66
47706;BME280;33471;52.104;1.318;2023-04-15T04:04:07;100726.82;;;10.34;54.96
47706;BME280;33471;52.104;1.318;2023-04-15T04:06:34;100730.36;;;10.43;53.90
47706;BME280;33471;52.104;1.318;2023-04-15T04:09:01;100737.27;;;10.33;54.85
47706;BME280;33471;52.104;1.318;2023-04-15T04:11:28;100736.11;;;9.80;56.71
47706;BME280;33471;52.104;1.318;2023-04-15T04:13:55;100742.56;;;9.88;55.06
47706;BME280;33471;52.104;1.318;2023-04-15T04:16:22;100747.56;;;10.53;54.15
47706;BME280;33471;52.104;1.318;2023-04-15T04:18:49;100752.26;;;10.36;53.69
47706;BME280;33471;52.104;1.318;2023-04-15T04:21:16;100754.93;;;9.95;56.04
47706;BME280;33471;52.104;1.318;2023-04-15T04:23:44;100759.75;;;9.68;54.95
47706;BME280;33471;52.104;1.318;2023-04-15T04:26:11;100762.13;;;10.37;54.26
47706;BME280;33471;52.104;1.318;2023-04-15T04:28:39;100766.26;;;9.09;57.28
47706;BME280;33471;52.104;1.318;2023-04-15T04:31:06;100766.08;;;10.08;54.90
47706;BME280;33471;52.104;1.318;2023-04-15T04:33:33;100771.35;;;10.31;53.85
47706;BME280;33471;52.104;1.318;2023-04-15T04:36:01;100773.44;;;9.78;55.40
47706;BME280;33471;52.104;1.318;2023-04-15T04:38:28;100779.93;;;9.08;57.48
47706;BME280;33471;52.104;1.318;2023-04-15T04:40:55;100783.86;;;8.37;58.55
47706;BME280;33471;52.104;1.318;2023-04-15T04:43:22;100784.74;;;9.61;57.24
47706;BME280;33471;52.104;1.318;2023-04-15T04:45:49;100790.06;;;9.06;57.37
47706;BME280;33471;52.104;1.318;2023-04-15T04:48:17;100791.35;;;10.39;55.49
47706;BME280;33471;52.104;1.318;2023-04-15T04:50:44;100795.73;;;8.77;58.26
47706;BME280;33471;52.104;1.318;2023-04-15T04:53:11;100794.08;;;9.32;57.84
47706;BME280;33471;52.104;1.318;2023-04-15T04:55:39;100798.96;;;8.96;57.45
47706;BME280;33471;52.104;1.318;2023-04-15T04:58:06;100806.39;;;9.38;57.99
47706;BME280;33471;52.104;1.318;2023-04-15T05:00:33;100818.28;;;8.62;59.71
47706;BME280;33471;52.104;1.318;2023-04-15T05:03:00;100822.17;;;8.67;60.27
47706;BME280;33471;52.104;1.318;2023-04-15T05:05:27;100827.37;;;8.39;60.43
47706;BME280;33471;52.104;1.318;2023-04-15T05:08:00;100825.52;;;7.70;60.15
47706;BME280;33471;52.104;1.318;2023-04-15T05:10:27;100829.30;;;8.59;59.17
47706;BME280;33471;52.104;1.318;2023-04-15T05:12:54;100836.85;;;9.14;57.34
47706;BME280;33471;52.104;1.318;2023-04-15T05:15:21;100841.14;;;9.71;55.69
47706;BME280;33471;52.104;1.318;2023-04-15T05:17:48;100851.60;;;8.76;57.80
47706;BME280;33471;52.104;1.318;2023-04-15T05:20:15;100852.27;;;8.04;59.51
47706;BME280;33471;52.104;1.318;2023-04-15T05:22:42;100856.46;;;7.76;60.07
47706;BME280;33471;52.104;1.318;2023-04-15T05:25:09;100860.75;;;8.10;59.96
47706;BME280;33471;52.104;1.318;2023-04-15T05:27:36;100864.90;;;8.97;58.25
47706;BME280;33471;52.104;1.318;2023-04-15T05:30:04;100874.43;;;8.77;59.56
47706;BME280;33471;52.104;1.318;2023-04-15T05:32:32;100876.99;;;8.45;60.45
47706;BME280;33471;52.104;1.318;2023-04-15T05:34:59;100884.87;;;8.62;60.79
47706;BME280;33471;52.104;1.318;2023-04-15T05:37:26;100894.52;;;7.53;64.12
47706;BME280;33471;52.104;1.318;2023-04-15T05:39:53;100901.59;;;7.80;63.37
47706;BME280;33471;52.104;1.318;2023-04-15T05:42:20;100909.74;;;7.75;63.61
47706;BME280;33471;52.104;1.318;2023-04-15T05:44:47;100913.90;;;7.93;62.79
47706;BME280;33471;52.104;1.318;2023-04-15T05:47:15;100921.17;;;7.49;64.73
47706;BME280;33471;52.104;1.318;2023-04-15T05:49:42;100925.66;;;7.41;63.10
47706;BME280;33471;52.104;1.318;2023-04-15T05:52:09;100935.18;;;7.57;63.62
47706;BME280;33471;52.104;1.318;2023-04-15T05:54:36;100935.04;;;7.76;64.84
47706;BME280;33471;52.104;1.318;2023-04-15T05:57:03;100939.19;;;7.66;64.08
47706;BME280;33471;52.104;1.318;2023-04-15T05:59:30;100945.23;;;7.61;65.24
47706;BME280;33471;52.104;1.318;2023-04-15T06:01:58;100949.43;;;7.44;64.78
47706;BME280;33471;52.104;1.318;2023-04-15T06:04:25;100951.93;;;7.89;64.14
47706;BME280;33471;52.104;1.318;2023-04-15T06:06:52;100960.47;;;7.65;64.37
47706;BME280;33471;52.104;1.318;2023-04-15T06:09:19;100953.83;;;8.06;63.09
47706;BME280;33471;52.104;1.318;2023-04-15T06:11:47;100959.35;;;7.06;65.31
47706;BME280;33471;52.104;1.318;2023-04-15T06:14:14;100962.60;;;7.72;64.75
47706;BME280;33471;52.104;1.318;2023-04-15T06:16:41;100967.07;;;7.72;63.60
47706;BME280;33471;52.104;1.318;2023-04-15T06:19:09;100978.90;;;7.92;64.22
47706;BME280;33471;52.104;1.318;2023-04-15T06:21:36;100986.64;;;7.96;64.15
47706;BME280;33471;52.104;1.318;2023-04-15T06:24:04;100992.15;;;7.25;65.88
47706;BME280;33471;52.104;1.318;2023-04-15T06:26:30;101001.12;;;7.86;64.46
47706;BME280;33471;52.104;1.318;2023-04-15T06:28:58;101001.58;;;8.60;60.90
47706;BME280;33471;52.104;1.318;2023-04-15T06:31:25;101001.40;;;8.77;60.85
47706;BME280;33471;52.104;1.318;2023-04-15T06:33:52;101015.30;;;8.46;61.13
47706;BME280;33471;52.104;1.318;2023-04-15T06:36:19;101019.78;;;8.57;61.77
47706;BME280;33471;52.104;1.318;2023-04-15T06:38:47;101016.66;;;9.20;59.72
47706;BME280;33471;52.104;1.318;2023-04-15T06:41:14;101024.51;;;8.57;61.45
47706;BME280;33471;52.104;1.318;2023-04-15T06:43:41;101025.22;;;8.86;59.21
47706;BME280;33471;52.104;1.318;2023-04-15T06:46:08;101025.74;;;9.14;59.95
47706;BME280;33471;52.104;1.318;2023-04-15T06:48:36;101035.73;;;9.38;59.77
47706;BME280;33471;52.104;1.318;2023-04-15T06:51:03;101045.46;;;8.37;61.17
47706;BME280;33471;52.104;1.318;2023-04-15T06:53:31;101045.47;;;9.79;58.60
47706;BME280;33471;52.104;1.318;2023-04-15T06:55:58;101051.49;;;9.23;58.96
47706;BME280;33471;52.104;1.318;2023-04-15T06:58:25;101062.52;;;8.90;60.52
47706;BME280;33471;52.104;1.318;2023-04-15T07:00:52;101068.82;;;7.99;62.78
47706;BME280;33471;52.104;1.318;2023-04-15T07:03:19;101073.69;;;8.51;61.17
47706;BME280;33471;52.104;1.318;2023-04-15T07:05:46;101083.34;;;8.68;61.34
47706;BME280;33471;52.104;1.318;2023-04-15T07:08:14;101084.37;;;8.93;61.53
47706;BME280;33471;52.104;1.318;2023-04-15T07:10:41;101090.64;;;8.46;62.06
47706;BME280;33471;52.104;1.318;2023-04-15T07:13:08;101098.00;;;8.39;62.13
47706;BME280;33471;52.104;1.318;2023-04-15T07:15:35;101098.51;;;9.62;59.62
47706;BME280;33471;52.104;1.318;2023-04-15T07:18:02;101109.09;;;9.52;59.35
47706;BME280;33471;52.104;1.318;2023-04-15T07:20:30;101112.26;;;9.93;58.37
47706;BME280;33471;52.104;1.318;2023-04-15T07:22:57;101118.32;;;9.05;61.14
47706;BME280;33471;52.104;1.318;2023-04-15T07:25:24;101132.61;;;8.96;61.92
47706;BME280;33471;52.104;1.318;2023-04-15T07:27:52;101125.11;;;9.09;60.44
47706;BME280;33471;52.104;1.318;2023-04-15T07:30:21;101130.19;;;9.84;58.96
47706;BME280;33471;52.104;1.318;2023-04-15T07:32:48;101131.51;;;9.95;58.38
47706;BME280;33471;52.104;1.318;2023-04-15T07:35:15;101136.79;;;9.54;59.61
47706;BME280;33471;52.104;1.318;2023-04-15T07:37:42;101147.63;;;8.54;61.15
47706;BME280;33471;52.104;1.318;2023-04-15T07:40:10;101148.05;;;9.63;59.84
47706;BME280;33471;52.104;1.318;2023-04-15T07:42:38;101150.65;;;9.65;59.79
47706;BME280;33471;52.104;1.318;2023-04-15T07:45:07;101156.39;;;9.51;58.42
47706;BME280;33471;52.104;1.318;2023-04-15T07:47:35;101158.34;;;9.83;58.64
47706;BME280;33471;52.104;1.318;2023-04-15T07:50:02;101166.51;;;10.04;57.66
47706;BME280;33471;52.104;1.318;2023-04-15T07:52:30;101177.70;;;10.33;56.75
47706;BME280;33471;52.104;1.318;2023-04-15T07:54:57;101189.42;;;10.61;56.71
47706;BME280;33471;52.104;1.318;2023-04-15T07:57:25;101188.66;;;10.65;56.70
47706;BME280;33471;52.104;1.318;2023-04-15T07:59:52;101193.95;;;10.52;55.72
47706;BME280;33471;52.104;1.318;2023-04-15T08:02:18;101197.74;;;10.86;55.95
47706;BME280;33471;52.104;1.318;2023-04-15T08:04:46;101202.40;;;10.62;56.59
47706;BME280;33471;52.104;1.318;2023-04-15T08:07:13;101205.49;;;11.07;55.51
47706;BME280;33471;52.104;1.318;2023-04-15T08:09:41;101213.66;;;11.27;54.76
47706;BME280;33471;52.104;1.318;2023-04-15T08:12:08;101225.06;;;10.76;55.97
47706;BME280;33471;52.104;1.318;2023-04-15T08:14:35;101229.72;;;11.43;54.27
47706;BME280;33471;52.104;1.318;2023-04-15T08:17:03;101235.76;;;12.16;53.63
47706;BME280;33471;52.104;1.318;2023-04-15T08:19:30;101241.96;;;12.01;53.58
47706;BME280;33471;52.104;1.318;2023-04-15T08:21:57;101243.44;;;11.25;54.48
47706;BME280;33471;52.104;1.318;2023-04-15T08:24:25;101243.62;;;11.20;54.51
47706;BME280;33471;52.104;1.318;2023-04-15T08:26:52;101251.26;;;11.77;54.13
47706;BME280;33471;52.104;1.318;2023-04-15T08:29:19;101251.04;;;11.35;54.95
47706;BME280;33471;52.104;1.318;2023-04-15T08:31:47;101250.09;;;10.19;57.28
47706;BME280;33471;52.104;1.318;2023-04-15T08:34:14;101255.65;;;10.88;55.77
47706;BME280;33471;52.104;1.318;2023-04-15T08:36:41;101252.57;;;10.50;56.28
47706;BME280;33471;52.104;1.318;2023-04-15T08:39:08;101257.48;;;11.32;55.58
47706;BME280;33471;52.104;1.318;2023-04-15T08:41:55;101261.40;;;9.81;55.53
47706;BME280;33471;52.104;1.318;2023-04-15T08:44:33;101259.80;;;11.97;52.58
47706;BME280;33471;52.104;1.318;2023-04-15T08:47:13;101260.81;;;10.57;52.34
47706;BME280;33471;52.104;1.318;2023-04-15T08:49:42;101262.97;;;12.50;49.96
47706;BME280;33471;52.104;1.318;2023-04-15T08:52:20;101273.96;;;12.25;49.42
47706;BME280;33471;52.104;1.318;2023-04-15T08:54:48;101274.89;;;13.50;48.05
47706;BME280;33471;52.104;1.318;2023-04-15T08:57:25;101274.20;;;12.10;50.15
47706;BME280;33471;52.104;1.318;2023-04-15T09:00:01;101282.28;;;12.12;50.51
47706;BME280;33471;52.104;1.318;2023-04-15T09:02:29;101288.80;;;13.23;48.52
47706;BME280;33471;52.104;1.318;2023-04-15T09:04:57;101295.37;;;12.38;51.26
47706;BME280;33471;52.104;1.318;2023-04-15T09:07:24;101297.87;;;12.88;50.55
47706;BME280;33471;52.104;1.318;2023-04-15T09:09:51;101298.79;;;12.12;53.30
47706;BME280;33471;52.104;1.318;2023-04-15T09:12:18;101300.49;;;12.57;52.07
47706;BME280;33471;52.104;1.318;2023-04-15T09:14:45;101301.58;;;12.09;52.88
47706;BME280;33471;52.104;1.318;2023-04-15T09:17:12;101302.70;;;12.83;50.62
47706;BME280;33471;52.104;1.318;2023-04-15T09:19:40;101308.75;;;13.02;50.94
47706;BME280;33471;52.104;1.318;2023-04-15T09:22:07;101315.73;;;12.20;50.86
47706;BME280;33471;52.104;1.318;2023-04-15T09:24:36;101315.98;;;12.29;53.20
47706;BME280;33471;52.104;1.318;2023-04-15T09:27:05;101324.95;;;12.25;52.97
47706;BME280;33471;52.104;1.318;2023-04-15T09:29:32;101324.46;;;11.61;54.64
47706;BME280;33471;52.104;1.318;2023-04-15T09:32:09;101331.44;;;12.57;53.49
47706;BME280;33471;52.104;1.318;2023-04-15T09:34:37;101339.39;;;11.92;53.16
47706;BME280;33471;52.104;1.318;2023-04-15T09:37:05;101340.70;;;12.61;51.35
47706;BME280;33471;52.104;1.318;2023-04-15T09:39:49;101348.08;;;12.70;51.92
47706;BME280;33471;52.104;1.318;2023-04-15T09:42:17;101352.94;;;12.97;51.21
47706;BME280;33471;52.104;1.318;2023-04-15T09:44:45;101354.76;;;13.46;49.94
47706;BME280;33471;52.104;1.318;2023-04-15T09:47:26;101359.08;;;13.91;47.92
47706;BME280;33471;52.104;1.318;2023-04-15T09:49:55;101360.67;;;14.05;48.17
47706;BME280;33471;52.104;1.318;2023-04-15T09:52:22;101366.86;;;13.44;50.55
47706;BME280;33471;52.104;1.318;2023-04-15T09:54:52;101370.87;;;13.33;49.37
47706;BME280;33471;52.104;1.318;2023-04-15T09:57:20;101371.99;;;13.88;48.02
47706;BME280;33471;52.104;1.318;2023-04-15T09:59:47;101376.51;;;13.16;49.69
47706;BME280;33471;52.104;1.318;2023-04-15T10:02:14;101385.14;;;13.05;49.36
47706;BME280;33471;52.104;1.318;2023-04-15T10:04:43;101380.09;;;13.67;47.11
47706;BME280;33471;52.104;1.318;2023-04-15T10:07:11;101383.50;;;13.66;47.24
47706;BME280;33471;52.104;1.318;2023-04-15T10:09:38;101387.36;;;13.66;48.60
47706;BME280;33471;52.104;1.318;2023-04-15T10:12:07;101388.17;;;12.91;48.54
47706;BME280;33471;52.104;1.318;2023-04-15T10:14:35;101387.54;;;14.39;46.83
47706;BME280;33471;52.104;1.318;2023-04-15T10:17:04;101394.31;;;14.88;45.63
47706;BME280;33471;52.104;1.318;2023-04-15T10:19:33;101393.23;;;14.36;45.76
47706;BME280;33471;52.104;1.318;2023-04-15T10:22:03;101396.85;;;14.62;45.38
47706;BME280;33471;52.104;1.318;2023-04-15T10:24:32;101402.60;;;14.27;45.99
47706;BME280;33471;52.104;1.318;2023-04-15T10:26:59;101407.42;;;14.37;43.98
47706;BME280;33471;52.104;1.318;2023-04-15T10:29:26;101417.18;;;14.57;44.70
47706;BME280;33471;52.104;1.318;2023-04-15T10:31:54;101418.71;;;14.50;43.53
47706;BME280;33471;52.104;1.318;2023-04-15T10:34:23;101423.14;;;13.89;44.49
47706;BME280;33471;52.104;1.318;2023-04-15T10:36:51;101426.05;;;14.29;43.92
47706;BME280;33471;52.104;1.318;2023-04-15T10:39:53;101429.27;;;15.75;43.52
47706;BME280;33471;52.104;1.318;2023-04-15T10:42:20;101424.31;;;14.03;44.92
47706;BME280;33471;52.104;1.318;2023-04-15T10:44:49;101427.18;;;14.09;44.36
47706;BME280;33471;52.104;1.318;2023-04-15T10:47:19;101432.42;;;14.04;43.92
47706;BME280;33471;52.104;1.318;2023-04-15T10:49:49;101437.17;;;14.58;43.50
47706;BME280;33471;52.104;1.318;2023-04-15T10:52:21;101440.06;;;15.18;41.87
47706;BME280;33471;52.104;1.318;2023-04-15T10:54:48;101440.09;;;15.65;41.69
47706;BME280;33471;52.104;1.318;2023-04-15T10:57:21;101443.99;;;14.38;43.85
47706;BME280;33471;52.104;1.318;2023-04-15T11:00:24;101448.62;;;15.88;42.87
47706;BME280;33471;52.104;1.318;2023-04-15T11:02:54;101450.09;;;15.41;40.67
47706;BME280;33471;52.104;1.318;2023-04-15T11:05:22;101451.91;;;14.56;42.05
47706;BME280;33471;52.104;1.318;2023-04-15T11:07:52;101447.78;;;15.77;40.34
47706;BME280;33471;52.104;1.318;2023-04-15T11:10:58;101458.14;;;16.54;38.62
47706;BME280;33471;52.104;1.318;2023-04-15T11:13:26;101455.43;;;14.94;38.25
47706;BME280;33471;52.104;1.318;2023-04-15T11:15:56;101457.89;;;15.26;38.72
47706;BME280;33471;52.104;1.318;2023-04-15T11:18:25;101450.64;;;16.23;38.43
47706;BME280;33471;52.104;1.318;2023-04-15T11:20:54;101454.62;;;16.83;37.45
47706;BME280;33471;52.104;1.318;2023-04-15T11:23:29;101457.66;;;17.26;36.67
47706;BME280;33471;52.104;1.318;2023-04-15T11:25:57;101463.93;;;17.41;37.37
47706;BME280;33471;52.104;1.318;2023-04-15T11:28:26;101470.10;;;16.03;37.32
47706;BME280;33471;52.104;1.318;2023-04-15T11:30:54;101466.90;;;16.57;35.59
47706;BME280;33471;52.104;1.318;2023-04-15T11:33:24;101471.26;;;16.55;33.14
47706;BME280;33471;52.104;1.318;2023-04-15T11:35:52;101477.61;;;17.23;33.58
47706;BME280;33471;52.104;1.318;2023-04-15T11:38:19;101477.10;;;17.53;35.57
47706;BME280;33471;52.104;1.318;2023-04-15T11:40:46;101479.81;;;18.29;35.42
47706;BME280;33471;52.104;1.318;2023-04-15T11:43:15;101485.37;;;18.44;32.28
47706;BME280;33471;52.104;1.318;2023-04-15T11:45:52;101489.70;;;17.57;33.72
47706;BME280;33471;52.104;1.318;2023-04-15T11:48:21;101493.13;;;17.29;33.12
47706;BME280;33471;52.104;1.318;2023-04-15T11:50:53;101497.38;;;17.75;32.75
47706;BME280;33471;52.104;1.318;2023-04-15T11:53:21;101497.90;;;18.05;33.10
47706;BME280;33471;52.104;1.318;2023-04-15T11:55:50;101508.12;;;17.55;33.86
47706;BME280;33471;52.104;1.318;2023-04-15T11:58:19;101505.77;;;17.66;31.36
47706;BME280;33471;52.104;1.318;2023-04-15T12:00:48;101505.95;;;18.29;31.77
47706;BME280;33471;52.104;1.318;2023-04-15T12:03:20;101511.09;;;18.26;32.14
47706;BME280;33471;52.104;1.318;2023-04-15T12:06:20;101521.10;;;18.81;31.70
47706;BME280;33471;52.104;1.318;2023-04-15T12:08:54;101524.97;;;18.07;31.75
47706;BME280;33471;52.104;1.318;2023-04-15T12:11:28;101526.40;;;18.25;30.93
47706;BME280;33471;52.104;1.318;2023-04-15T12:13:58;101528.33;;;17.97;31.27
47706;BME280;33471;52.104;1.318;2023-04-15T12:16:27;101528.99;;;17.91;32.69
47706;BME280;33471;52.104;1.318;2023-04-15T12:18:56;101539.88;;;18.09;30.08
47706;BME280;33471;52.104;1.318;2023-04-15T12:21:26;101543.60;;;17.65;30.45
47706;BME280;33471;52.104;1.318;2023-04-15T12:23:56;101547.27;;;18.80;30.43
47706;BME280;33471;52.104;1.318;2023-04-15T12:26:26;101554.12;;;17.58;32.66
47706;BME280;33471;52.104;1.318;2023-04-15T12:28:55;101563.10;;;17.84;33.17
47706;BME280;33471;52.104;1.318;2023-04-15T12:31:22;101564.11;;;16.70;33.90
47706;BME280;33471;52.104;1.318;2023-04-15T12:33:49;101569.57;;;16.76;33.77
47706;BME280;33471;52.104;1.318;2023-04-15T12:36:16;101574.36;;;16.47;33.91
47706;BME280;33471;52.104;1.318;2023-04-15T12:38:43;101577.59;;;16.93;34.42
47706;BME280;33471;52.104;1.318;2023-04-15T12:41:11;101580.27;;;16.80;33.56
47706;BME280;33471;52.104;1.318;2023-04-15T12:43:38;101583.94;;;17.11;33.81
47706;BME280;33471;52.104;1.318;2023-04-15T12:46:05;101580.12;;;17.49;32.51
47706;BME280;33471;52.104;1.318;2023-04-15T12:48:33;101583.22;;;17.74;30.18
47706;BME280;33471;52.104;1.318;2023-04-15T12:51:00;101587.72;;;17.68;29.97
47706;BME280;33471;52.104;1.318;2023-04-15T12:53:27;101588.33;;;18.07;31.45
47706;BME280;33471;52.104;1.318;2023-04-15T12:55:54;101593.28;;;17.85;31.14
47706;BME280;33471;52.104;1.318;2023-04-15T12:58:21;101600.18;;;17.43;30.33